sensor_id;sensor_type;location;lat;lon;timestamp;P1;durP1;ratioP1;P2;durP2;ratioP2
22849;SDS011;11591;44.792;10.358;2023-02-28T00:00:29;19.80;;;7.65;;
22849;SDS011;11591;44.792;10.358;2023-02-28T00:02:55;14.38;;;6.85;;
22849;SDS011;11591;44.792;10.358;2023-02-28T00:05:22;14.75;;;6.47;;
22849;SDS011;11591;44.792;10.358;2023-02-28T00:07:49;21.23;;;8.07;;
22849;SDS011;11591;44.792;10.358;2023-02-28T00:12:52;16.65;;;7.47;;
22849;SDS011;11591;44.792;10.358;2023-02-28T00:15:22;17.77;;;7.38;;
22849;SDS011;11591;44.792;10.358;2023-02-28T00:17:48;22.55;;;8.40;;
22849;SDS011;11591;44.792;10.358;2023-02-28T00:20:14;17.73;;;7.25;;
22849;SDS011;11591;44.792;10.358;2023-02-28T00:22:41;18.48;;;7.15;;
22849;SDS011;11591;44.792;10.358;2023-02-28T00:25:09;17.48;;;7.75;;
22849;SDS011;11591;44.792;10.358;2023-02-28T00:27:37;15.90;;;7.03;;
22849;SDS011;11591;44.792;10.358;2023-02-28T00:30:04;14.90;;;7.72;;
22849;SDS011;11591;44.792;10.358;2023-02-28T00:32:31;20.00;;;8.25;;
22849;SDS011;11591;44.792;10.358;2023-02-28T00:34:57;21.85;;;7.22;;
22849;SDS011;11591;44.792;10.358;2023-02-28T00:37:23;24.98;;;8.27;;
22849;SDS011;11591;44.792;10.358;2023-02-28T00:39:49;14.07;;;6.68;;
22849;SDS011;11591;44.792;10.358;2023-02-28T00:42:15;20.75;;;8.18;;
22849;SDS011;11591;44.792;10.358;2023-02-28T00:44:40;21.83;;;7.90;;
22849;SDS011;11591;44.792;10.358;2023-02-28T00:47:06;16.50;;;6.95;;
22849;SDS011;11591;44.792;10.358;2023-02-28T00:49:32;17.10;;;7.70;;
22849;SDS011;11591;44.792;10.358;2023-02-28T00:51:58;15.50;;;7.53;;
22849;SDS011;11591;44.792;10.358;2023-02-28T00:54:25;14.65;;;7.38;;
22849;SDS011;11591;44.792;10.358;2023-02-28T00:56:51;15.40;;;7.00;;
22849;SDS011;11591;44.792;10.358;2023-02-28T00:59:17;15.38;;;7.40;;
22849;SDS011;11591;44.792;10.358;2023-02-28T01:01:44;16.10;;;7.43;;
22849;SDS011;11591;44.792;10.358;2023-02-28T01:04:10;13.80;;;7.30;;
22849;SDS011;11591;44.792;10.358;2023-02-28T01:06:37;16.33;;;7.53;;
22849;SDS011;11591;44.792;10.358;2023-02-28T01:09:04;16.92;;;7.82;;
22849;SDS011;11591;44.792;10.358;2023-02-28T01:11:31;15.65;;;7.25;;
22849;SDS011;11591;44.792;10.358;2023-02-28T01:13:57;17.00;;;7.82;;
22849;SDS011;11591;44.792;10.358;2023-02-28T01:16:23;16.02;;;7.22;;
22849;SDS011;11591;44.792;10.358;2023-02-28T01:18:49;18.10;;;7.30;;
22849;SDS011;11591;44.792;10.358;2023-02-28T01:21:17;20.90;;;7.38;;
22849;SDS011;11591;44.792;10.358;2023-02-28T01:23:44;19.30;;;8.50;;
22849;SDS011;11591;44.792;10.358;2023-02-28T01:26:12;17.20;;;7.22;;
22849;SDS011;11591;44.792;10.358;2023-02-28T01:28:40;18.63;;;7.88;;
22849;SDS011;11591;44.792;10.358;2023-02-28T01:31:06;16.85;;;7.30;;
22849;SDS011;11591;44.792;10.358;2023-02-28T01:33:36;17.80;;;7.43;;
22849;SDS011;11591;44.792;10.358;2023-02-28T01:36:04;14.75;;;7.20;;
22849;SDS011;11591;44.792;10.358;2023-02-28T01:38:32;17.95;;;7.40;;
22849;SDS011;11591;44.792;10.358;2023-02-28T01:40:58;22.50;;;7.70;;
22849;SDS011;11591;44.792;10.358;2023-02-28T01:43:27;14.30;;;7.32;;
22849;SDS011;11591;44.792;10.358;2023-02-28T01:45:55;19.73;;;7.70;;
22849;SDS011;11591;44.792;10.358;2023-02-28T01:48:24;14.80;;;6.95;;
22849;SDS011;11591;44.792;10.358;2023-02-28T01:50:56;17.67;;;7.65;;
22849;SDS011;11591;44.792;10.358;2023-02-28T01:53:30;18.23;;;7.18;;
22849;SDS011;11591;44.792;10.358;2023-02-28T01:55:59;17.95;;;7.13;;
22849;SDS011;11591;44.792;10.358;2023-02-28T01:58:28;18.17;;;7.32;;
22849;SDS011;11591;44.792;10.358;2023-02-28T02:00:55;20.77;;;7.53;;
22849;SDS011;11591;44.792;10.358;2023-02-28T02:03:22;14.02;;;7.40;;
22849;SDS011;11591;44.792;10.358;2023-02-28T02:05:49;18.83;;;7.38;;
22849;SDS011;11591;44.792;10.358;2023-02-28T02:08:19;16.40;;;7.47;;
22849;SDS011;11591;44.792;10.358;2023-02-28T02:10:52;18.80;;;7.20;;
22849;SDS011;11591;44.792;10.358;2023-02-28T02:19:16;16.55;;;7.53;;
22849;SDS011;11591;44.792;10.358;2023-02-28T02:38:41;15.88;;;7.60;;
22849;SDS011;11591;44.792;10.358;2023-02-28T02:41:34;17.75;;;6.53;;
22849;SDS011;11591;44.792;10.358;2023-02-28T02:44:11;15.82;;;7.30;;
22849;SDS011;11591;44.792;10.358;2023-02-28T02:46:59;15.35;;;7.03;;
22849;SDS011;11591;44.792;10.358;2023-02-28T02:49:33;14.90;;;7.25;;
22849;SDS011;11591;44.792;10.358;2023-02-28T02:52:04;15.32;;;7.22;;
22849;SDS011;11591;44.792;10.358;2023-02-28T02:54:36;15.05;;;7.10;;
22849;SDS011;11591;44.792;10.358;2023-02-28T02:57:07;15.48;;;6.90;;
22849;SDS011;11591;44.792;10.358;2023-02-28T02:59:37;13.80;;;7.20;;
22849;SDS011;11591;44.792;10.358;2023-02-28T03:02:06;12.98;;;7.18;;
22849;SDS011;11591;44.792;10.358;2023-02-28T03:04:38;13.27;;;7.05;;
22849;SDS011;11591;44.792;10.358;2023-02-28T03:07:09;14.00;;;6.90;;
22849;SDS011;11591;44.792;10.358;2023-02-28T03:09:36;16.15;;;7.47;;
22849;SDS011;11591;44.792;10.358;2023-02-28T03:12:02;14.80;;;7.32;;
22849;SDS011;11591;44.792;10.358;2023-02-28T03:20:41;15.15;;;7.57;;
22849;SDS011;11591;44.792;10.358;2023-02-28T03:23:26;16.05;;;7.28;;
22849;SDS011;11591;44.792;10.358;2023-02-28T03:26:04;11.15;;;6.60;;
22849;SDS011;11591;44.792;10.358;2023-02-28T03:31:50;14.10;;;6.72;;
22849;SDS011;11591;44.792;10.358;2023-02-28T03:36:51;15.20;;;6.85;;
22849;SDS011;11591;44.792;10.358;2023-02-28T03:39:29;13.52;;;7.45;;
22849;SDS011;11591;44.792;10.358;2023-02-28T03:42:07;16.45;;;7.88;;
22849;SDS011;11591;44.792;10.358;2023-02-28T03:47:37;14.10;;;7.22;;
22849;SDS011;11591;44.792;10.358;2023-02-28T03:55:27;15.55;;;7.28;;
22849;SDS011;11591;44.792;10.358;2023-02-28T03:58:18;14.95;;;6.78;;
22849;SDS011;11591;44.792;10.358;2023-02-28T04:01:11;15.48;;;6.75;;
22849;SDS011;11591;44.792;10.358;2023-02-28T04:03:43;13.55;;;6.68;;
22849;SDS011;11591;44.792;10.358;2023-02-28T04:06:13;14.15;;;7.20;;
22849;SDS011;11591;44.792;10.358;2023-02-28T04:08:42;15.90;;;7.53;;
22849;SDS011;11591;44.792;10.358;2023-02-28T04:11:27;12.93;;;7.18;;
22849;SDS011;11591;44.792;10.358;2023-02-28T04:13:58;15.73;;;7.22;;
22849;SDS011;11591;44.792;10.358;2023-02-28T04:16:24;17.33;;;7.97;;
22849;SDS011;11591;44.792;10.358;2023-02-28T04:18:50;14.70;;;6.60;;
22849;SDS011;11591;44.792;10.358;2023-02-28T04:21:16;16.45;;;7.72;;
22849;SDS011;11591;44.792;10.358;2023-02-28T04:23:45;18.10;;;9.25;;
22849;SDS011;11591;44.792;10.358;2023-02-28T04:26:11;12.70;;;7.28;;
22849;SDS011;11591;44.792;10.358;2023-02-28T04:28:37;17.45;;;7.63;;
22849;SDS011;11591;44.792;10.358;2023-02-28T04:31:04;16.63;;;7.97;;
22849;SDS011;11591;44.792;10.358;2023-02-28T04:33:31;20.27;;;8.13;;
22849;SDS011;11591;44.792;10.358;2023-02-28T04:35:58;14.43;;;7.40;;
22849;SDS011;11591;44.792;10.358;2023-02-28T04:38:29;16.00;;;7.30;;
22849;SDS011;11591;44.792;10.358;2023-02-28T04:40:58;16.85;;;7.95;;
22849;SDS011;11591;44.792;10.358;2023-02-28T04:43:28;15.15;;;7.55;;
22849;SDS011;11591;44.792;10.358;2023-02-28T04:45:55;12.50;;;6.70;;
22849;SDS011;11591;44.792;10.358;2023-02-28T04:48:22;15.52;;;7.32;;
22849;SDS011;11591;44.792;10.358;2023-02-28T04:50:49;14.27;;;7.55;;
22849;SDS011;11591;44.792;10.358;2023-02-28T04:53:16;12.95;;;6.88;;
22849;SDS011;11591;44.792;10.358;2023-02-28T04:55:42;11.65;;;6.63;;
22849;SDS011;11591;44.792;10.358;2023-02-28T04:58:08;14.98;;;7.30;;
22849;SDS011;11591;44.792;10.358;2023-02-28T05:00:34;18.30;;;7.03;;
22849;SDS011;11591;44.792;10.358;2023-02-28T05:02:59;15.48;;;7.47;;
22849;SDS011;11591;44.792;10.358;2023-02-28T05:05:25;13.70;;;7.40;;
22849;SDS011;11591;44.792;10.358;2023-02-28T05:07:51;12.88;;;7.25;;
22849;SDS011;11591;44.792;10.358;2023-02-28T05:10:18;18.13;;;8.23;;
22849;SDS011;11591;44.792;10.358;2023-02-28T05:12:44;14.30;;;7.45;;
22849;SDS011;11591;44.792;10.358;2023-02-28T05:15:12;13.23;;;7.00;;
22849;SDS011;11591;44.792;10.358;2023-02-28T05:17:39;14.13;;;7.53;;
22849;SDS011;11591;44.792;10.358;2023-02-28T05:20:05;15.20;;;7.05;;
22849;SDS011;11591;44.792;10.358;2023-02-28T05:22:31;17.33;;;7.53;;
22849;SDS011;11591;44.792;10.358;2023-02-28T05:24:57;15.02;;;7.53;;
22849;SDS011;11591;44.792;10.358;2023-02-28T05:27:23;14.55;;;7.78;;
22849;SDS011;11591;44.792;10.358;2023-02-28T05:29:50;14.55;;;7.65;;
22849;SDS011;11591;44.792;10.358;2023-02-28T05:32:15;12.05;;;7.10;;
22849;SDS011;11591;44.792;10.358;2023-02-28T05:34:41;16.52;;;7.80;;
22849;SDS011;11591;44.792;10.358;2023-02-28T05:37:11;12.75;;;6.95;;
22849;SDS011;11591;44.792;10.358;2023-02-28T05:39:38;14.77;;;8.18;;
22849;SDS011;11591;44.792;10.358;2023-02-28T05:42:04;16.13;;;7.47;;
22849;SDS011;11591;44.792;10.358;2023-02-28T05:44:30;15.00;;;7.45;;
22849;SDS011;11591;44.792;10.358;2023-02-28T05:46:56;15.77;;;7.75;;
22849;SDS011;11591;44.792;10.358;2023-02-28T05:49:21;14.55;;;7.90;;
22849;SDS011;11591;44.792;10.358;2023-02-28T05:51:47;13.93;;;7.25;;
22849;SDS011;11591;44.792;10.358;2023-02-28T05:54:13;12.80;;;7.35;;
22849;SDS011;11591;44.792;10.358;2023-02-28T05:56:39;13.52;;;7.43;;
22849;SDS011;11591;44.792;10.358;2023-02-28T05:59:06;14.05;;;7.70;;
22849;SDS011;11591;44.792;10.358;2023-02-28T06:01:33;27.85;;;14.18;;
22849;SDS011;11591;44.792;10.358;2023-02-28T06:04:04;22.00;;;11.18;;
22849;SDS011;11591;44.792;10.358;2023-02-28T06:06:31;18.00;;;8.85;;
22849;SDS011;11591;44.792;10.358;2023-02-28T06:08:59;15.30;;;7.68;;
22849;SDS011;11591;44.792;10.358;2023-02-28T06:11:26;18.55;;;8.07;;
22849;SDS011;11591;44.792;10.358;2023-02-28T06:13:56;16.45;;;8.27;;
22849;SDS011;11591;44.792;10.358;2023-02-28T06:16:24;15.40;;;7.93;;
22849;SDS011;11591;44.792;10.358;2023-02-28T06:18:51;15.07;;;8.15;;
22849;SDS011;11591;44.792;10.358;2023-02-28T06:21:18;17.75;;;8.32;;
22849;SDS011;11591;44.792;10.358;2023-02-28T06:23:44;18.05;;;8.48;;
22849;SDS011;11591;44.792;10.358;2023-02-28T06:26:10;18.20;;;8.50;;
22849;SDS011;11591;44.792;10.358;2023-02-28T06:28:36;20.60;;;8.38;;
22849;SDS011;11591;44.792;10.358;2023-02-28T06:31:08;17.65;;;8.52;;
22849;SDS011;11591;44.792;10.358;2023-02-28T06:33:36;15.82;;;8.00;;
22849;SDS011;11591;44.792;10.358;2023-02-28T06:36:03;15.95;;;8.07;;
22849;SDS011;11591;44.792;10.358;2023-02-28T06:38:30;15.07;;;8.35;;
22849;SDS011;11591;44.792;10.358;2023-02-28T06:40:56;18.17;;;8.77;;
22849;SDS011;11591;44.792;10.358;2023-02-28T06:43:24;17.17;;;8.20;;
22849;SDS011;11591;44.792;10.358;2023-02-28T06:45:53;17.13;;;8.60;;
22849;SDS011;11591;44.792;10.358;2023-02-28T06:48:20;17.98;;;8.48;;
22849;SDS011;11591;44.792;10.358;2023-02-28T06:50:46;16.98;;;8.52;;
22849;SDS011;11591;44.792;10.358;2023-02-28T06:53:12;16.30;;;8.43;;
22849;SDS011;11591;44.792;10.358;2023-02-28T06:55:38;19.63;;;8.77;;
22849;SDS011;11591;44.792;10.358;2023-02-28T06:58:04;18.13;;;9.13;;
22849;SDS011;11591;44.792;10.358;2023-02-28T07:00:42;19.08;;;8.93;;
22849;SDS011;11591;44.792;10.358;2023-02-28T07:03:09;21.90;;;8.77;;
22849;SDS011;11591;44.792;10.358;2023-02-28T07:05:36;17.20;;;8.15;;
22849;SDS011;11591;44.792;10.358;2023-02-28T07:08:03;19.50;;;8.57;;
22849;SDS011;11591;44.792;10.358;2023-02-28T07:10:31;16.63;;;8.60;;
22849;SDS011;11591;44.792;10.358;2023-02-28T07:12:58;18.98;;;8.80;;
22849;SDS011;11591;44.792;10.358;2023-02-28T07:15:24;19.85;;;8.20;;
22849;SDS011;11591;44.792;10.358;2023-02-28T07:17:50;17.80;;;8.43;;
22849;SDS011;11591;44.792;10.358;2023-02-28T07:20:16;17.90;;;9.05;;
22849;SDS011;11591;44.792;10.358;2023-02-28T07:22:42;16.73;;;8.80;;
22849;SDS011;11591;44.792;10.358;2023-02-28T07:25:08;19.52;;;8.75;;
22849;SDS011;11591;44.792;10.358;2023-02-28T07:27:34;17.40;;;8.77;;
22849;SDS011;11591;44.792;10.358;2023-02-28T07:30:00;19.85;;;8.70;;
22849;SDS011;11591;44.792;10.358;2023-02-28T07:32:27;17.70;;;8.60;;
22849;SDS011;11591;44.792;10.358;2023-02-28T07:34:53;16.80;;;8.23;;
22849;SDS011;11591;44.792;10.358;2023-02-28T07:37:19;16.95;;;8.73;;
22849;SDS011;11591;44.792;10.358;2023-02-28T07:39:45;17.35;;;9.20;;
22849;SDS011;11591;44.792;10.358;2023-02-28T07:42:11;19.73;;;8.75;;
22849;SDS011;11591;44.792;10.358;2023-02-28T07:44:41;23.50;;;11.05;;
22849;SDS011;11591;44.792;10.358;2023-02-28T07:47:07;22.27;;;10.82;;
22849;SDS011;11591;44.792;10.358;2023-02-28T07:49:34;19.45;;;9.70;;
22849;SDS011;11591;44.792;10.358;2023-02-28T07:52:01;19.40;;;8.77;;
22849;SDS011;11591;44.792;10.358;2023-02-28T07:54:28;19.55;;;9.38;;
22849;SDS011;11591;44.792;10.358;2023-02-28T07:56:54;18.55;;;8.63;;
22849;SDS011;11591;44.792;10.358;2023-02-28T07:59:20;17.73;;;8.55;;
22849;SDS011;11591;44.792;10.358;2023-02-28T08:01:46;18.83;;;8.75;;
22849;SDS011;11591;44.792;10.358;2023-02-28T08:04:11;17.90;;;8.13;;
22849;SDS011;11591;44.792;10.358;2023-02-28T08:06:37;15.50;;;7.97;;
22849;SDS011;11591;44.792;10.358;2023-02-28T08:09:03;14.38;;;8.10;;
22849;SDS011;11591;44.792;10.358;2023-02-28T08:11:29;16.13;;;7.93;;
22849;SDS011;11591;44.792;10.358;2023-02-28T08:13:55;17.88;;;9.10;;
22849;SDS011;11591;44.792;10.358;2023-02-28T08:16:21;18.77;;;8.73;;
22849;SDS011;11591;44.792;10.358;2023-02-28T08:18:47;18.00;;;8.68;;
22849;SDS011;11591;44.792;10.358;2023-02-28T08:21:15;17.73;;;9.07;;
22849;SDS011;11591;44.792;10.358;2023-02-28T08:23:41;16.45;;;8.60;;
22849;SDS011;11591;44.792;10.358;2023-02-28T08:26:09;21.55;;;9.20;;
22849;SDS011;11591;44.792;10.358;2023-02-28T08:28:35;20.52;;;8.93;;
22849;SDS011;11591;44.792;10.358;2023-02-28T08:31:01;18.83;;;8.40;;
22849;SDS011;11591;44.792;10.358;2023-02-28T08:33:31;17.20;;;8.50;;
22849;SDS011;11591;44.792;10.358;2023-02-28T08:35:57;19.45;;;8.93;;
22849;SDS011;11591;44.792;10.358;2023-02-28T08:38:24;19.63;;;8.80;;
22849;SDS011;11591;44.792;10.358;2023-02-28T08:40:50;20.50;;;9.73;;
22849;SDS011;11591;44.792;10.358;2023-02-28T08:43:22;17.58;;;8.85;;
22849;SDS011;11591;44.792;10.358;2023-02-28T08:45:47;18.98;;;9.30;;
22849;SDS011;11591;44.792;10.358;2023-02-28T08:48:17;17.45;;;9.10;;
22849;SDS011;11591;44.792;10.358;2023-02-28T08:50:42;19.10;;;9.57;;
22849;SDS011;11591;44.792;10.358;2023-02-28T08:53:08;16.83;;;8.80;;
22849;SDS011;11591;44.792;10.358;2023-02-28T08:55:34;19.23;;;8.65;;
22849;SDS011;11591;44.792;10.358;2023-02-28T08:58:00;15.60;;;8.60;;
22849;SDS011;11591;44.792;10.358;2023-02-28T09:00:26;19.05;;;9.63;;
22849;SDS011;11591;44.792;10.358;2023-02-28T09:02:52;16.75;;;9.13;;
22849;SDS011;11591;44.792;10.358;2023-02-28T09:05:19;17.75;;;9.60;;
22849;SDS011;11591;44.792;10.358;2023-02-28T09:07:45;16.70;;;9.10;;
22849;SDS011;11591;44.792;10.358;2023-02-28T09:10:11;22.48;;;9.57;;
22849;SDS011;11591;44.792;10.358;2023-02-28T09:12:37;18.90;;;8.90;;
22849;SDS011;11591;44.792;10.358;2023-02-28T09:15:03;18.85;;;9.55;;
22849;SDS011;11591;44.792;10.358;2023-02-28T09:17:29;20.98;;;9.63;;
22849;SDS011;11591;44.792;10.358;2023-02-28T09:19:55;24.02;;;10.20;;
22849;SDS011;11591;44.792;10.358;2023-02-28T09:22:22;22.55;;;11.05;;
22849;SDS011;11591;44.792;10.358;2023-02-28T09:24:47;19.45;;;9.68;;
22849;SDS011;11591;44.792;10.358;2023-02-28T09:27:13;24.60;;;9.75;;
22849;SDS011;11591;44.792;10.358;2023-02-28T09:29:39;19.15;;;9.68;;
22849;SDS011;11591;44.792;10.358;2023-02-28T09:32:05;16.90;;;9.50;;
22849;SDS011;11591;44.792;10.358;2023-02-28T09:34:31;20.08;;;9.52;;
22849;SDS011;11591;44.792;10.358;2023-02-28T09:36:56;22.35;;;10.07;;
22849;SDS011;11591;44.792;10.358;2023-02-28T09:39:22;19.80;;;9.48;;
22849;SDS011;11591;44.792;10.358;2023-02-28T09:41:50;18.23;;;9.45;;
22849;SDS011;11591;44.792;10.358;2023-02-28T09:50:11;21.60;;;10.00;;
22849;SDS011;11591;44.792;10.358;2023-02-28T09:52:48;17.15;;;9.63;;
22849;SDS011;11591;44.792;10.358;2023-02-28T09:55:20;20.30;;;9.20;;
22849;SDS011;11591;44.792;10.358;2023-02-28T09:57:48;17.27;;;9.20;;
22849;SDS011;11591;44.792;10.358;2023-02-28T10:05:41;16.38;;;8.85;;
22849;SDS011;11591;44.792;10.358;2023-02-28T10:08:18;17.85;;;9.45;;
22849;SDS011;11591;44.792;10.358;2023-02-28T10:11:12;19.85;;;10.35;;
22849;SDS011;11591;44.792;10.358;2023-02-28T10:16:22;22.42;;;9.40;;
22849;SDS011;11591;44.792;10.358;2023-02-28T10:21:44;21.20;;;10.02;;
22849;SDS011;11591;44.792;10.358;2023-02-28T10:24:30;22.30;;;10.40;;
22849;SDS011;11591;44.792;10.358;2023-02-28T10:30:02;20.17;;;9.70;;
22849;SDS011;11591;44.792;10.358;2023-02-28T10:32:29;20.88;;;10.05;;
22849;SDS011;11591;44.792;10.358;2023-02-28T10:37:37;19.33;;;9.15;;
22849;SDS011;11591;44.792;10.358;2023-02-28T10:40:07;16.70;;;9.60;;
22849;SDS011;11591;44.792;10.358;2023-02-28T10:42:55;18.83;;;9.60;;
22849;SDS011;11591;44.792;10.358;2023-02-28T10:45:22;19.17;;;10.15;;
22849;SDS011;11591;44.792;10.358;2023-02-28T10:47:51;18.92;;;9.73;;
22849;SDS011;11591;44.792;10.358;2023-02-28T10:53:05;21.48;;;10.10;;
22849;SDS011;11591;44.792;10.358;2023-02-28T10:58:31;15.85;;;9.30;;
22849;SDS011;11591;44.792;10.358;2023-02-28T11:01:10;17.63;;;9.63;;
22849;SDS011;11591;44.792;10.358;2023-02-28T11:03:42;20.60;;;8.93;;
22849;SDS011;11591;44.792;10.358;2023-02-28T11:06:18;19.70;;;9.15;;
22849;SDS011;11591;44.792;10.358;2023-02-28T11:08:48;18.48;;;9.30;;
22849;SDS011;11591;44.792;10.358;2023-02-28T11:11:16;19.63;;;9.35;;
22849;SDS011;11591;44.792;10.358;2023-02-28T11:13:44;20.73;;;9.50;;
22849;SDS011;11591;44.792;10.358;2023-02-28T11:16:13;17.77;;;8.95;;
22849;SDS011;11591;44.792;10.358;2023-02-28T11:21:15;18.73;;;9.10;;
22849;SDS011;11591;44.792;10.358;2023-02-28T11:23:44;22.10;;;10.15;;
22849;SDS011;11591;44.792;10.358;2023-02-28T11:26:10;16.10;;;9.15;;
22849;SDS011;11591;44.792;10.358;2023-02-28T11:28:40;17.60;;;8.95;;
22849;SDS011;11591;44.792;10.358;2023-02-28T11:36:14;18.10;;;8.65;;
22849;SDS011;11591;44.792;10.358;2023-02-28T11:38:49;20.17;;;9.48;;
22849;SDS011;11591;44.792;10.358;2023-02-28T11:46:49;20.75;;;9.95;;
22849;SDS011;11591;44.792;10.358;2023-02-28T11:55:07;25.20;;;10.90;;
22849;SDS011;11591;44.792;10.358;2023-02-28T11:58:11;20.33;;;10.45;;
22849;SDS011;11591;44.792;10.358;2023-02-28T12:06:45;19.35;;;10.15;;
22849;SDS011;11591;44.792;10.358;2023-02-28T12:09:35;18.02;;;10.15;;
22849;SDS011;11591;44.792;10.358;2023-02-28T12:12:24;19.75;;;9.50;;
22849;SDS011;11591;44.792;10.358;2023-02-28T12:20:52;18.63;;;10.07;;
22849;SDS011;11591;44.792;10.358;2023-02-28T12:28:47;17.85;;;9.88;;
22849;SDS011;11591;44.792;10.358;2023-02-28T12:33:53;22.92;;;9.60;;
22849;SDS011;11591;44.792;10.358;2023-02-28T12:36:26;17.95;;;9.32;;
22849;SDS011;11591;44.792;10.358;2023-02-28T12:38:55;20.05;;;10.73;;
22849;SDS011;11591;44.792;10.358;2023-02-28T12:44:08;21.42;;;9.93;;
22849;SDS011;11591;44.792;10.358;2023-02-28T12:46:44;17.13;;;9.80;;
22849;SDS011;11591;44.792;10.358;2023-02-28T12:51:39;18.15;;;10.48;;
22849;SDS011;11591;44.792;10.358;2023-02-28T13:10:46;17.35;;;10.15;;
22849;SDS011;11591;44.792;10.358;2023-02-28T13:13:26;19.15;;;10.48;;
22849;SDS011;11591;44.792;10.358;2023-02-28T13:16:07;24.70;;;11.57;;
22849;SDS011;11591;44.792;10.358;2023-02-28T13:18:38;21.08;;;10.63;;
22849;SDS011;11591;44.792;10.358;2023-02-28T13:21:24;17.98;;;10.27;;
22849;SDS011;11591;44.792;10.358;2023-02-28T13:47:30;19.98;;;11.30;;
22849;SDS011;11591;44.792;10.358;2023-02-28T13:52:45;20.98;;;10.23;;
22849;SDS011;11591;44.792;10.358;2023-02-28T13:55:43;18.63;;;10.57;;
22849;SDS011;11591;44.792;10.358;2023-02-28T14:07:20;19.77;;;10.90;;
22849;SDS011;11591;44.792;10.358;2023-02-28T14:09:51;19.35;;;10.50;;
22849;SDS011;11591;44.792;10.358;2023-02-28T14:15:54;21.67;;;11.25;;
22849;SDS011;11591;44.792;10.358;2023-02-28T14:18:16;20.63;;;11.38;;
22849;SDS011;11591;44.792;10.358;2023-02-28T14:20:47;23.27;;;11.30;;
22849;SDS011;11591;44.792;10.358;2023-02-28T14:31:29;20.33;;;10.52;;
22849;SDS011;11591;44.792;10.358;2023-02-28T14:36:44;21.25;;;10.65;;
22849;SDS011;11591;44.792;10.358;2023-02-28T14:39:13;20.73;;;11.75;;
22849;SDS011;11591;44.792;10.358;2023-02-28T14:41:42;21.95;;;11.48;;
22849;SDS011;11591;44.792;10.358;2023-02-28T14:44:22;19.67;;;10.68;;
22849;SDS011;11591;44.792;10.358;2023-02-28T14:46:52;23.35;;;12.35;;
22849;SDS011;11591;44.792;10.358;2023-02-28T14:49:29;21.60;;;12.10;;
22849;SDS011;11591;44.792;10.358;2023-02-28T14:54:54;19.58;;;11.45;;
22849;SDS011;11591;44.792;10.358;2023-02-28T14:57:32;20.73;;;11.52;;
22849;SDS011;11591;44.792;10.358;2023-02-28T15:00:22;22.30;;;11.38;;
22849;SDS011;11591;44.792;10.358;2023-02-28T15:02:45;18.77;;;11.50;;
22849;SDS011;11591;44.792;10.358;2023-02-28T15:07:37;21.92;;;12.05;;
22849;SDS011;11591;44.792;10.358;2023-02-28T15:10:23;22.40;;;11.32;;
22849;SDS011;11591;44.792;10.358;2023-02-28T15:13:06;19.10;;;11.98;;
22849;SDS011;11591;44.792;10.358;2023-02-28T15:21:12;21.38;;;11.68;;
22849;SDS011;11591;44.792;10.358;2023-02-28T15:23:49;21.02;;;12.60;;
22849;SDS011;11591;44.792;10.358;2023-02-28T15:26:25;23.75;;;13.30;;
22849;SDS011;11591;44.792;10.358;2023-02-28T15:29:15;22.05;;;13.23;;
22849;SDS011;11591;44.792;10.358;2023-02-28T15:31:46;22.33;;;14.38;;
22849;SDS011;11591;44.792;10.358;2023-02-28T15:34:36;29.02;;;16.33;;
22849;SDS011;11591;44.792;10.358;2023-02-28T15:40:13;21.50;;;12.73;;
22849;SDS011;11591;44.792;10.358;2023-02-28T15:42:42;21.40;;;12.70;;
22849;SDS011;11591;44.792;10.358;2023-02-28T15:45:29;25.58;;;12.85;;
22849;SDS011;11591;44.792;10.358;2023-02-28T15:48:04;21.17;;;13.23;;
22849;SDS011;11591;44.792;10.358;2023-02-28T15:50:36;19.90;;;12.35;;
22849;SDS011;11591;44.792;10.358;2023-02-28T15:53:03;23.02;;;12.98;;
22849;SDS011;11591;44.792;10.358;2023-02-28T15:55:29;19.52;;;12.07;;
22849;SDS011;11591;44.792;10.358;2023-02-28T15:58:00;25.33;;;13.38;;
22849;SDS011;11591;44.792;10.358;2023-02-28T16:00:27;23.25;;;12.88;;
22849;SDS011;11591;44.792;10.358;2023-02-28T16:02:54;23.20;;;12.82;;
22849;SDS011;11591;44.792;10.358;2023-02-28T16:05:22;21.80;;;12.13;;
22849;SDS011;11591;44.792;10.358;2023-02-28T16:07:58;21.83;;;12.85;;
22849;SDS011;11591;44.792;10.358;2023-02-28T16:10:37;21.83;;;12.55;;
22849;SDS011;11591;44.792;10.358;2023-02-28T16:13:03;20.83;;;12.85;;
22849;SDS011;11591;44.792;10.358;2023-02-28T16:15:29;25.10;;;13.30;;
22849;SDS011;11591;44.792;10.358;2023-02-28T16:17:58;22.10;;;12.40;;
22849;SDS011;11591;44.792;10.358;2023-02-28T16:20:27;21.27;;;12.68;;
22849;SDS011;11591;44.792;10.358;2023-02-28T16:22:55;22.55;;;12.88;;
22849;SDS011;11591;44.792;10.358;2023-02-28T16:25:26;23.25;;;13.07;;
22849;SDS011;11591;44.792;10.358;2023-02-28T16:27:59;23.10;;;12.15;;
22849;SDS011;11591;44.792;10.358;2023-02-28T16:30:26;27.85;;;12.38;;
22849;SDS011;11591;44.792;10.358;2023-02-28T16:32:54;24.23;;;12.25;;
22849;SDS011;11591;44.792;10.358;2023-02-28T16:35:20;26.25;;;12.55;;
22849;SDS011;11591;44.792;10.358;2023-02-28T16:37:47;26.42;;;13.15;;
22849;SDS011;11591;44.792;10.358;2023-02-28T16:40:16;26.65;;;12.60;;
22849;SDS011;11591;44.792;10.358;2023-02-28T16:42:47;21.38;;;11.65;;
22849;SDS011;11591;44.792;10.358;2023-02-28T16:45:21;25.70;;;12.50;;
22849;SDS011;11591;44.792;10.358;2023-02-28T16:47:48;22.00;;;12.27;;
22849;SDS011;11591;44.792;10.358;2023-02-28T16:50:19;26.50;;;13.25;;
22849;SDS011;11591;44.792;10.358;2023-02-28T16:52:47;24.98;;;12.45;;
22849;SDS011;11591;44.792;10.358;2023-02-28T16:55:13;33.33;;;13.38;;
22849;SDS011;11591;44.792;10.358;2023-02-28T16:57:39;32.45;;;17.23;;
22849;SDS011;11591;44.792;10.358;2023-02-28T17:00:06;23.95;;;13.02;;
22849;SDS011;11591;44.792;10.358;2023-02-28T17:02:33;23.85;;;12.43;;
22849;SDS011;11591;44.792;10.358;2023-02-28T17:05:00;24.45;;;13.05;;
22849;SDS011;11591;44.792;10.358;2023-02-28T17:07:25;26.52;;;13.75;;
22849;SDS011;11591;44.792;10.358;2023-02-28T17:09:51;27.70;;;13.60;;
22849;SDS011;11591;44.792;10.358;2023-02-28T17:12:17;22.70;;;12.40;;
22849;SDS011;11591;44.792;10.358;2023-02-28T17:14:43;26.98;;;13.40;;
22849;SDS011;11591;44.792;10.358;2023-02-28T17:17:10;26.52;;;13.43;;
22849;SDS011;11591;44.792;10.358;2023-02-28T17:19:42;24.20;;;12.20;;
22849;SDS011;11591;44.792;10.358;2023-02-28T17:22:09;34.50;;;13.45;;
22849;SDS011;11591;44.792;10.358;2023-02-28T17:24:35;22.90;;;12.50;;
22849;SDS011;11591;44.792;10.358;2023-02-28T17:27:01;26.10;;;13.05;;
22849;SDS011;11591;44.792;10.358;2023-02-28T17:29:28;24.52;;;13.00;;
22849;SDS011;11591;44.792;10.358;2023-02-28T17:31:54;25.52;;;13.13;;
22849;SDS011;11591;44.792;10.358;2023-02-28T17:34:20;27.02;;;12.98;;
22849;SDS011;11591;44.792;10.358;2023-02-28T17:36:47;28.58;;;12.73;;
22849;SDS011;11591;44.792;10.358;2023-02-28T17:39:16;24.45;;;12.38;;
22849;SDS011;11591;44.792;10.358;2023-02-28T17:41:51;27.17;;;13.68;;
22849;SDS011;11591;44.792;10.358;2023-02-28T17:44:21;26.23;;;12.50;;
22849;SDS011;11591;44.792;10.358;2023-02-28T17:46:50;25.05;;;12.70;;
22849;SDS011;11591;44.792;10.358;2023-02-28T17:49:17;23.23;;;12.75;;